M S San Francisco — WZC3886 — position and weather

sailwx.info

Track history (hours):
 
Tides and Currents Weather Stations Pressure Air Temp Water Temp Dewpoint Dewpoint Depression Visibility Wind Speed Wind Dir Waves Ship Positions

M S San Francisco

Owner: GOLDEN GATE BRIDGE HWY & TRANSP DISTRICT, LARKSPUR, CA. More information available from US FCC via Universal Licensing System and Coast Guard Vessel Documentation Center.

Last reported at 2017-Jun-26 12:00 UTC. Time now 2017-Jun-26 12:05 UTC.
Position N 37°56' W 122°29'.

Length 58 m.

Type: Passenger vessel. MMSI: 366963980.

Date/timePositionNaut miles runAvg speedWind from/ knotsBaromVisibWave heightAir tempDewpointWater temp
2017-Jun-26 12:00N 37°56' W 122°29'2 0.2
2017-Jun-26 03:29N 37°57' W 122°31'0 0.0
2017-Jun-26 03:00N 37°57' W 122°31'0 0.0
2017-Jun-26 02:31N 37°57' W 122°31'3 6.4
2017-Jun-26 02:00N 37°55' W 122°27'815.6
2017-Jun-26 01:30N 37°48' W 122°24'0 0.7
2017-Jun-26 01:00N 37°48' W 122°23'510.7
2017-Jun-26 00:30N 37°51' W 122°29'2 3.2
2017-Jun-26 00:00N 37°51' W 122°27'4 8.0
2017-Jun-25 23:30N 37°48' W 122°24'4 7.1
2017-Jun-25 23:01N 37°50' W 122°26'2 4.0
2017-Jun-25 22:30N 37°51' W 122°29'510.2
2017-Jun-25 22:01N 37°49' W 122°23'2 3.8
2017-Jun-25 21:31N 37°50' W 122°25'3 6.2
2017-Jun-25 21:01N 37°51' W 122°28'510.4
2017-Jun-25 20:30N 37°48' W 122°24'510.7
2017-Jun-25 20:01N 37°51' W 122°29'0 0.7
2017-Jun-25 19:31N 37°51' W 122°28'510.1
2017-Jun-25 19:00N 37°48' W 122°24'510.8
2017-Jun-25 18:31N 37°51' W 122°29'3 5.7
2017-Jun-25 18:01N 37°50' W 122°25'3 5.0
2017-Jun-25 17:30N 37°48' W 122°23'917.7
2017-Jun-25 17:00N 37°56' W 122°29'1 2.6
2017-Jun-25 16:30N 37°57' W 122°30'0 0.0
2017-Jun-25 16:00N 37°57' W 122°30'0 0.0
2017-Jun-25 02:22N 37°57' W 122°30'2 6.5
2017-Jun-25 02:00N 37°56' W 122°28'917.1
2017-Jun-25 01:30N 37°48' W 122°24'0 0.2
2017-Jun-25 01:01N 37°48' W 122°23'510.8
2017-Jun-25 00:30N 37°51' W 122°29'1 2.9
2017-Jun-25 00:00N 37°51' W 122°27'4 8.4
2017-Jun-24 23:30N 37°48' W 122°24'510.8
2017-Jun-24 23:00N 37°51' W 122°29'0 0.9
2017-Jun-24 22:31N 37°51' W 122°28'5 9.9
2017-Jun-24 22:01N 37°48' W 122°23'2 4.8
2017-Jun-24 21:30N 37°50' W 122°25'3 6.4
2017-Jun-24 21:00N 37°51' W 122°29'510.8
2017-Jun-24 20:30N 37°48' W 122°24'3 6.2
2017-Jun-24 20:01N 37°51' W 122°26'3 5.1
2017-Jun-24 19:31N 37°51' W 122°29'510.7
2017-Jun-24 19:00N 37°48' W 122°24'510.7
2017-Jun-24 18:30N 37°51' W 122°29'2 4.3
2017-Jun-24 18:00N 37°51' W 122°26'4 7.1
2017-Jun-24 17:30N 37°48' W 122°24'612.7
2017-Jun-24 17:01N 37°54' W 122°26'4 8.9
2017-Jun-24 16:30N 37°57' W 122°30'0 0.0
2017-Jun-24 05:15N 37°57' W 122°30'0 0.2
2017-Jun-24 05:01N 37°57' W 122°31'0 0.0
2017-Jun-24 04:31N 37°57' W 122°31'4 8.1
2017-Jun-24 04:00N 37°54' W 122°26'3 5.2
2017-Jun-24 03:31N 37°52' W 122°27'5 9.4
2017-Jun-24 03:00N 37°48' W 122°24'510.9
2017-Jun-24 02:30N 37°52' W 122°27'510.9
2017-Jun-24 02:00N 37°48' W 122°23'510.0
2017-Jun-24 01:30N 37°52' W 122°27'3 5.2
2017-Jun-24 01:00N 37°50' W 122°25'3 5.0
2017-Jun-24 00:30N 37°48' W 122°23'611.0
2017-Jun-24 00:00N 37°52' W 122°27'510.6
2017-Jun-23 23:30N 37°48' W 122°23'0 0.5
2017-Jun-23 23:01N 37°48' W 122°23'0 0.5
2017-Jun-23 22:31N 37°48' W 122°24'0 0.0
2017-Jun-23 22:01N 37°48' W 122°24'0 0.0
2017-Jun-23 21:30N 37°48' W 122°24'0 0.0
2017-Jun-23 21:00N 37°48' W 122°24'0 0.0
2017-Jun-23 20:31N 37°48' W 122°24'0 0.0
2017-Jun-23 20:01N 37°48' W 122°24'0 0.0
2017-Jun-23 19:30N 37°48' W 122°24'0 0.0
2017-Jun-23 19:01N 37°48' W 122°24'0 0.0
2017-Jun-23 18:31N 37°48' W 122°24'0 0.0
2017-Jun-23 18:01N 37°48' W 122°24'0 0.0
2017-Jun-23 17:30N 37°48' W 122°24'0 0.6
2017-Jun-23 17:00N 37°48' W 122°23'2 3.2
2017-Jun-23 16:31N 37°49' W 122°24'4 7.6
2017-Jun-23 16:01N 37°52' W 122°27'5 9.9
2017-Jun-23 15:31N 37°48' W 122°24'510.7
2017-Jun-23 15:01N 37°52' W 122°27'4 8.2
2017-Jun-23 14:31N 37°49' W 122°23'4 4.0
2017-Jun-23 13:30N 37°52' W 122°27'510.5
2017-Jun-23 13:00N 37°48' W 122°24'511.0
2017-Jun-23 12:31N 37°52' W 122°27'4 7.4
2017-Jun-23 12:00N 37°56' W 122°29'2 0.2
2017-Jun-23 04:19N 37°57' W 122°31'2 7.4
2017-Jun-23 04:00N 37°56' W 122°28'3 6.8
2017-Jun-23 03:31N 37°52' W 122°27'510.7
2017-Jun-23 03:00N 37°48' W 122°24'511.0
2017-Jun-23 02:30N 37°52' W 122°27'510.9
2017-Jun-23 02:00N 37°48' W 122°23'4 7.8
2017-Jun-23 01:31N 37°51' W 122°26'1 2.0
2017-Jun-23 01:01N 37°51' W 122°25'3 6.3
2017-Jun-23 00:30N 37°48' W 122°23'611.0
2017-Jun-23 00:00N 37°52' W 122°27'510.8
2017-Jun-22 23:31N 37°48' W 122°23'0 0.4
2017-Jun-22 23:01N 37°48' W 122°23'0 0.8
2017-Jun-22 22:30N 37°48' W 122°24'0 0.0
2017-Jun-22 22:00N 37°48' W 122°24'0 0.0
2017-Jun-22 21:30N 37°48' W 122°24'0 0.0
2017-Jun-22 21:00N 37°48' W 122°24'0 0.0
2017-Jun-22 20:30N 37°48' W 122°24'0 0.0
2017-Jun-22 20:00N 37°48' W 122°24'0 0.0
2017-Jun-22 19:30N 37°48' W 122°24'0 0.0
2017-Jun-22 19:00N 37°48' W 122°24'0 0.0
2017-Jun-22 18:30N 37°48' W 122°24'0 0.0
2017-Jun-22 18:01N 37°48' W 122°24'0 0.0
2017-Jun-22 17:30N 37°48' W 122°24'0 0.6
2017-Jun-22 17:00N 37°48' W 122°23'2 3.2
2017-Jun-22 16:30N 37°49' W 122°24'4 8.2
2017-Jun-22 16:00N 37°52' W 122°27'510.5
2017-Jun-22 15:30N 37°48' W 122°24'510.7
2017-Jun-22 15:00N 37°52' W 122°27'4 7.2
2017-Jun-22 14:30N 37°50' W 122°24'4 3.5
2017-Jun-22 13:30N 37°52' W 122°27'510.6
2017-Jun-22 13:00N 37°48' W 122°24'511.0
2017-Jun-22 12:31N 37°52' W 122°27'3 5.8
2017-Jun-22 12:01N 37°55' W 122°27'3 0.4
2017-Jun-22 04:27N 37°57' W 122°30'511.7
2017-Jun-22 04:01N 37°53' W 122°26'4 7.2
2017-Jun-22 03:30N 37°49' W 122°24'2 3.5
2017-Jun-22 03:00N 37°48' W 122°23'611.1
2017-Jun-22 02:30N 37°52' W 122°27'510.8
2017-Jun-22 02:01N 37°48' W 122°23'5 9.3
2017-Jun-22 01:30N 37°52' W 122°27'2 4.1
2017-Jun-22 01:00N 37°50' W 122°25'3 5.6
2017-Jun-22 00:31N 37°48' W 122°23'611.0
2017-Jun-22 00:00N 37°52' W 122°27'611.0
2017-Jun-21 23:30N 37°48' W 122°23'0 0.1
2017-Jun-21 23:00N 37°48' W 122°23'0 0.4
2017-Jun-21 22:30N 37°48' W 122°24'0 0.0
2017-Jun-21 22:00N 37°48' W 122°24'0 0.0
2017-Jun-21 21:30N 37°48' W 122°24'0 0.0
2017-Jun-21 21:00N 37°48' W 122°24'0 0.0
2017-Jun-21 20:30N 37°48' W 122°24'0 0.0
2017-Jun-21 20:00N 37°48' W 122°24'0 0.0
2017-Jun-21 19:30N 37°48' W 122°24'0 0.0
2017-Jun-21 19:00N 37°48' W 122°24'0 0.0
2017-Jun-21 18:30N 37°48' W 122°24'0 0.0
2017-Jun-21 18:00N 37°48' W 122°24'0 0.0
2017-Jun-21 17:30N 37°48' W 122°24'0 0.5
2017-Jun-21 17:00N 37°48' W 122°23'1 3.0
2017-Jun-21 16:30N 37°49' W 122°24'4 8.2
2017-Jun-21 16:00N 37°52' W 122°27'510.3
2017-Jun-21 15:30N 37°48' W 122°24'510.7
2017-Jun-21 15:01N 37°52' W 122°27'3 3.4
2017-Jun-21 14:00N 37°50' W 122°24'3 7.0
2017-Jun-21 13:31N 37°52' W 122°27'510.7
2017-Jun-21 13:01N 37°48' W 122°24'510.9
2017-Jun-21 12:30N 37°52' W 122°27'2 4.3
2017-Jun-21 12:00N 37°55' W 122°27'3 7.0
2017-Jun-21 11:30N 37°57' W 122°30'0 0.1
2017-Jun-21 11:00N 37°57' W 122°31'0 0.1
2017-Jun-21 10:29N 37°57' W 122°30'0 0.0
2017-Jun-21 10:00N 37°57' W 122°30'0 0.1
2017-Jun-21 09:30N 37°57' W 122°31'0 0.0
2017-Jun-21 09:00N 37°57' W 122°31'0 0.0
2017-Jun-21 08:30N 37°57' W 122°31'0 0.0
2017-Jun-21 08:00N 37°57' W 122°31'0 0.0
2017-Jun-21 07:30N 37°57' W 122°31'0 0.1
2017-Jun-21 07:00N 37°57' W 122°30'0 0.1
2017-Jun-21 06:30N 37°57' W 122°31'0 0.0
2017-Jun-21 06:00N 37°57' W 122°31'0 0.0
2017-Jun-21 05:31N 37°57' W 122°31'0 0.0
2017-Jun-21 04:59N 37°57' W 122°31'0 0.0
2017-Jun-21 04:25N 37°57' W 122°31'3 8.1
2017-Jun-21 04:01N 37°55' W 122°27'3 5.1
2017-Jun-21 03:30N 37°52' W 122°27'510.9
2017-Jun-21 03:00N 37°48' W 122°24'510.9
2017-Jun-21 02:30N 37°52' W 122°27'510.8
2017-Jun-21 02:00N 37°48' W 122°23'4 8.6
2017-Jun-21 01:30N 37°51' W 122°27'2 4.3
2017-Jun-21 01:00N 37°50' W 122°24'3 5.2
2017-Jun-21 00:30N 37°48' W 122°23'611.1
2017-Jun-21 00:01N 37°52' W 122°27'510.6
2017-Jun-20 23:30N 37°48' W 122°23'0 1.0
2017-Jun-20 23:00N 37°48' W 122°23'0 0.2
2017-Jun-20 22:30N 37°48' W 122°24'0 0.0
2017-Jun-20 22:00N 37°48' W 122°24'0 0.0
2017-Jun-20 21:30N 37°48' W 122°24'0 0.0
2017-Jun-20 21:00N 37°48' W 122°24'0 0.0
2017-Jun-20 20:30N 37°48' W 122°24'0 0.0
2017-Jun-20 20:00N 37°48' W 122°24'0 0.0
2017-Jun-20 19:30N 37°48' W 122°24'0 0.0
2017-Jun-20 19:00N 37°48' W 122°24'0 0.0
2017-Jun-20 18:30N 37°48' W 122°24'0 0.0
2017-Jun-20 18:00N 37°48' W 122°24'0 0.0
2017-Jun-20 17:30N 37°48' W 122°24'0 0.4
2017-Jun-20 17:00N 37°48' W 122°23'2 3.4
2017-Jun-20 16:30N 37°49' W 122°24'4 7.8
2017-Jun-20 16:00N 37°52' W 122°27'510.5
2017-Jun-20 15:30N 37°48' W 122°24'510.8
2017-Jun-20 15:01N 37°52' W 122°27'3 3.4
2017-Jun-20 14:01N 37°50' W 122°24'3 6.8
2017-Jun-20 13:30N 37°52' W 122°27'510.6
2017-Jun-20 13:00N 37°48' W 122°24'510.9
2017-Jun-20 12:30N 37°52' W 122°27'3 5.5
2017-Jun-20 12:01N 37°55' W 122°27'3 5.5
2017-Jun-20 11:29N 37°57' W 122°31'0 0.0
2017-Jun-20 11:00N 37°57' W 122°31'0 0.0
2017-Jun-20 10:30N 37°57' W 122°31'0 0.1
2017-Jun-20 10:00N 37°57' W 122°30'0 0.0
2017-Jun-20 09:30N 37°57' W 122°30'0 0.1
2017-Jun-20 09:00N 37°57' W 122°31'0 0.0
2017-Jun-20 08:30N 37°57' W 122°31'0 0.0
2017-Jun-20 08:00N 37°57' W 122°31'0 0.0
2017-Jun-20 07:30N 37°57' W 122°31'0 0.0
2017-Jun-20 07:00N 37°57' W 122°31'0 0.0
2017-Jun-20 06:30N 37°57' W 122°31'0 0.0
2017-Jun-20 06:00N 37°57' W 122°31'0 0.0
2017-Jun-20 05:30N 37°57' W 122°31'0 0.0
2017-Jun-20 05:00N 37°57' W 122°31'0 0.0
2017-Jun-20 04:30N 37°57' W 122°31'2 3.5
2017-Jun-20 04:00N 37°56' W 122°29'4 7.7
2017-Jun-20 03:31N 37°52' W 122°27'510.5
2017-Jun-20 03:01N 37°48' W 122°24'510.8
2017-Jun-20 02:30N 37°52' W 122°27'510.8
2017-Jun-20 02:00N 37°48' W 122°23'4 8.8
2017-Jun-20 01:31N 37°51' W 122°27'2 3.6
2017-Jun-20 01:00N 37°50' W 122°25'3 5.8
2017-Jun-20 00:30N 37°48' W 122°23'611.1
2017-Jun-20 00:00N 37°52' W 122°27'510.9
2017-Jun-19 23:30N 37°48' W 122°23'0 0.4
2017-Jun-19 23:00N 37°48' W 122°23'0 0.7
2017-Jun-19 22:30N 37°48' W 122°24'0 0.0
2017-Jun-19 22:00N 37°48' W 122°24'0 0.0
2017-Jun-19 21:30N 37°48' W 122°24'0 0.0
2017-Jun-19 21:00N 37°48' W 122°24'0 0.0
2017-Jun-19 20:30N 37°48' W 122°24'0 0.0
2017-Jun-19 20:00N 37°48' W 122°24'0 0.0
2017-Jun-19 19:30N 37°48' W 122°24'0 0.0
2017-Jun-19 19:00N 37°48' W 122°24'0 0.0
2017-Jun-19 18:30N 37°48' W 122°24'0 0.0
2017-Jun-19 18:00N 37°48' W 122°24'0 0.0
2017-Jun-19 17:30N 37°48' W 122°24'0 0.5
2017-Jun-19 17:00N 37°48' W 122°23'2 3.3
2017-Jun-19 16:31N 37°49' W 122°24'4 8.0
2017-Jun-19 16:01N 37°52' W 122°27'510.5
2017-Jun-19 15:30N 37°48' W 122°24'510.9
2017-Jun-19 15:00N 37°52' W 122°27'4 8.3
2017-Jun-19 14:30N 37°50' W 122°23'4 3.9
2017-Jun-19 13:30N 37°52' W 122°27'510.3
2017-Jun-19 13:00N 37°48' W 122°24'511.0
2017-Jun-19 12:30N 37°52' W 122°27'3 6.1
2017-Jun-19 12:00N 37°55' W 122°28'3 5.1
2017-Jun-19 11:29N 37°57' W 122°31'0 0.0
2017-Jun-19 10:59N 37°57' W 122°31'0 0.0
2017-Jun-19 10:31N 37°57' W 122°31'0 0.0
2017-Jun-19 10:00N 37°57' W 122°31'0 0.1
2017-Jun-19 09:29N 37°57' W 122°30'0 0.1
2017-Jun-19 09:00N 37°57' W 122°31'0 0.0
2017-Jun-19 08:30N 37°57' W 122°31'0 0.0
2017-Jun-19 08:00N 37°57' W 122°31'0 0.0
2017-Jun-19 07:30N 37°57' W 122°31'0 0.0
2017-Jun-19 07:00N 37°57' W 122°31'0 0.0
2017-Jun-19 06:30N 37°57' W 122°31'0 0.0
2017-Jun-19 05:59N 37°57' W 122°31'0 0.0
2017-Jun-19 05:29N 37°57' W 122°31'0 0.0
2017-Jun-19 05:00N 37°57' W 122°31'0 0.0
2017-Jun-19 04:30N 37°57' W 122°31'0 0.0
2017-Jun-19 03:58N 37°57' W 122°31'0 0.0
2017-Jun-19 03:28N 37°57' W 122°31'0 0.0
2017-Jun-19 03:00N 37°57' W 122°31'0 0.0
2017-Jun-19 02:29N 37°57' W 122°31'2 3.9
2017-Jun-19 02:00N 37°56' W 122°28'917.8
2017-Jun-19 01:31N 37°48' W 122°23'0 0.4
2017-Jun-19 01:01N 37°48' W 122°24'510.5
2017-Jun-19 00:30N 37°51' W 122°29'2 3.3
2017-Jun-19 00:00N 37°51' W 122°27'4 8.0
2017-Jun-18 23:30N 37°48' W 122°24'4 7.7
2017-Jun-18 23:00N 37°50' W 122°27'2 3.1
2017-Jun-18 22:30N 37°51' W 122°29'5 9.2
2017-Jun-18 22:00N 37°49' W 122°24'0 0.9
2017-Jun-18 21:30N 37°49' W 122°24'4 8.5
2017-Jun-18 21:00N 37°51' W 122°29'510.9
2017-Jun-18 20:30N 37°48' W 122°23'3 5.1
2017-Jun-18 20:01N 37°49' W 122°26'3 5.8
2017-Jun-18 19:30N 37°51' W 122°29'510.7
2017-Jun-18 19:00N 37°48' W 122°24'4 8.2
2017-Jun-18 18:30N 37°51' W 122°27'1 1.1
2017-Jun-18 18:01N 37°51' W 122°27'5 9.0
2017-Jun-18 17:31N 37°48' W 122°24'611.4
2017-Jun-18 17:00N 37°53' W 122°26'510.2
2017-Jun-18 16:30N 37°57' W 122°31'0 0.0
2017-Jun-18 16:00N 37°57' W 122°31'0 0.0
2017-Jun-18 03:49N 37°57' W 122°31'2 6.3
2017-Jun-18 03:31N 37°56' W 122°28'917.7
2017-Jun-18 03:01N 37°48' W 122°24'1 2.8
2017-Jun-18 02:30N 37°49' W 122°24'4 8.6
2017-Jun-18 02:01N 37°51' W 122°29'0 0.2
2017-Jun-18 01:31N 37°51' W 122°29'510.6
2017-Jun-18 01:00N 37°48' W 122°24'0 0.2
2017-Jun-18 00:30N 37°48' W 122°23'917.8
2017-Jun-18 00:01N 37°56' W 122°28'2 3.4
2017-Jun-17 23:30N 37°57' W 122°30'815.8
2017-Jun-17 23:01N 37°51' W 122°24'3 5.6
2017-Jun-17 22:30N 37°48' W 122°24'0 0.0
2017-Jun-17 22:00N 37°48' W 122°24'0 0.4
2017-Jun-17 21:31N 37°48' W 122°23'918.2
2017-Jun-17 21:00N 37°56' W 122°29'2 2.9
2017-Jun-17 20:30N 37°57' W 122°30'613.3
2017-Jun-17 20:00N 37°52' W 122°25'4 8.9
2017-Jun-17 19:30N 37°48' W 122°24'917.3
2017-Jun-17 19:00N 37°56' W 122°28'2 4.3
2017-Jun-17 18:30N 37°57' W 122°31'0 0.0
2017-Jun-17 04:40N 37°57' W 122°31'0 0.5
2017-Jun-17 04:30N 37°57' W 122°31'2 3.5
2017-Jun-17 04:00N 37°56' W 122°29'4 7.7
2017-Jun-17 03:30N 37°52' W 122°27'510.5
2017-Jun-17 03:00N 37°48' W 122°23'510.9
2017-Jun-17 02:30N 37°52' W 122°27'511.0
2017-Jun-17 02:01N 37°48' W 122°24'510.4
2017-Jun-17 01:30N 37°52' W 122°27'2 3.4
2017-Jun-17 01:01N 37°51' W 122°26'4 7.1
2017-Jun-17 00:30N 37°48' W 122°23'511.0
2017-Jun-17 00:01N 37°52' W 122°27'510.9
2017-Jun-16 23:30N 37°48' W 122°23'0 0.4
2017-Jun-16 23:00N 37°48' W 122°23'0 0.6
2017-Jun-16 22:30N 37°48' W 122°24'0 0.0
2017-Jun-16 22:00N 37°48' W 122°24'0 0.0
2017-Jun-16 21:30N 37°48' W 122°24'0 0.0
2017-Jun-16 21:00N 37°48' W 122°24'0 0.0
2017-Jun-16 20:30N 37°48' W 122°24'0 0.0
2017-Jun-16 20:00N 37°48' W 122°24'0 0.0
2017-Jun-16 19:30N 37°48' W 122°24'0 0.0
2017-Jun-16 19:00N 37°48' W 122°24'0 0.0
2017-Jun-16 18:30N 37°48' W 122°24'0 0.0
2017-Jun-16 18:00N 37°48' W 122°24'0 0.0
2017-Jun-16 17:30N 37°48' W 122°24'0 0.4
2017-Jun-16 17:00N 37°48' W 122°23'1 2.3
2017-Jun-16 16:30N 37°49' W 122°24'5 9.0
2017-Jun-16 16:00N 37°52' W 122°27'510.6
2017-Jun-16 15:30N 37°48' W 122°24'5 9.8
2017-Jun-16 15:00N 37°52' W 122°27'3 3.0
2017-Jun-16 14:00N 37°50' W 122°24'3 6.9
2017-Jun-16 13:30N 37°52' W 122°27'510.8
2017-Jun-16 13:00N 37°48' W 122°24'510.9
2017-Jun-16 12:30N 37°52' W 122°27'  
Track history (hours):
 
Tides and Currents Weather Stations Pressure Air Temp Water Temp Dewpoint Dewpoint Depression Visibility Wind Speed Wind Dir Waves Ship Positions

M S San Francisco

Owner: GOLDEN GATE BRIDGE HWY & TRANSP DISTRICT, LARKSPUR, CA. More information available from US FCC via Universal Licensing System and Coast Guard Vessel Documentation Center.

Last reported at 2017-Jun-26 12:00 UTC. Time now 2017-Jun-26 12:05 UTC.
Position N 37°56' W 122°29'.

Length 58 m.

Type: Passenger vessel. MMSI: 366963980.

Date/timePositionNaut miles runAvg speedWind from/ knotsBaromVisibWave heightAir tempDewpointWater temp
2017-Jun-26 12:00N 37°56' W 122°29'2 0.2
2017-Jun-26 03:29N 37°57' W 122°31'0 0.0
2017-Jun-26 03:00N 37°57' W 122°31'0 0.0
2017-Jun-26 02:31N 37°57' W 122°31'3 6.4
2017-Jun-26 02:00N 37°55' W 122°27'815.6
2017-Jun-26 01:30N 37°48' W 122°24'0 0.7
2017-Jun-26 01:00N 37°48' W 122°23'510.7
2017-Jun-26 00:30N 37°51' W 122°29'2 3.2
2017-Jun-26 00:00N 37°51' W 122°27'4 8.0
2017-Jun-25 23:30N 37°48' W 122°24'4 7.1
2017-Jun-25 23:01N 37°50' W 122°26'2 4.0
2017-Jun-25 22:30N 37°51' W 122°29'510.2
2017-Jun-25 22:01N 37°49' W 122°23'2 3.8
2017-Jun-25 21:31N 37°50' W 122°25'3 6.2
2017-Jun-25 21:01N 37°51' W 122°28'510.4
2017-Jun-25 20:30N 37°48' W 122°24'510.7
2017-Jun-25 20:01N 37°51' W 122°29'0 0.7
2017-Jun-25 19:31N 37°51' W 122°28'510.1
2017-Jun-25 19:00N 37°48' W 122°24'510.8
2017-Jun-25 18:31N 37°51' W 122°29'3 5.7
2017-Jun-25 18:01N 37°50' W 122°25'3 5.0
2017-Jun-25 17:30N 37°48' W 122°23'917.7
2017-Jun-25 17:00N 37°56' W 122°29'1 2.6
2017-Jun-25 16:30N 37°57' W 122°30'0 0.0
2017-Jun-25 16:00N 37°57' W 122°30'0 0.0
2017-Jun-25 02:22N 37°57' W 122°30'2 6.5
2017-Jun-25 02:00N 37°56' W 122°28'917.1
2017-Jun-25 01:30N 37°48' W 122°24'0 0.2
2017-Jun-25 01:01N 37°48' W 122°23'510.8
2017-Jun-25 00:30N 37°51' W 122°29'1 2.9
2017-Jun-25 00:00N 37°51' W 122°27'4 8.4
2017-Jun-24 23:30N 37°48' W 122°24'510.8
2017-Jun-24 23:00N 37°51' W 122°29'0 0.9
2017-Jun-24 22:31N 37°51' W 122°28'5 9.9
2017-Jun-24 22:01N 37°48' W 122°23'2 4.8
2017-Jun-24 21:30N 37°50' W 122°25'3 6.4
2017-Jun-24 21:00N 37°51' W 122°29'510.8
2017-Jun-24 20:30N 37°48' W 122°24'3 6.2
2017-Jun-24 20:01N 37°51' W 122°26'3 5.1
2017-Jun-24 19:31N 37°51' W 122°29'510.7
2017-Jun-24 19:00N 37°48' W 122°24'510.7
2017-Jun-24 18:30N 37°51' W 122°29'2 4.3
2017-Jun-24 18:00N 37°51' W 122°26'4 7.1
2017-Jun-24 17:30N 37°48' W 122°24'612.7
2017-Jun-24 17:01N 37°54' W 122°26'4 8.9
2017-Jun-24 16:30N 37°57' W 122°30'0 0.0
2017-Jun-24 05:15N 37°57' W 122°30'0 0.2
2017-Jun-24 05:01N 37°57' W 122°31'0 0.0
2017-Jun-24 04:31N 37°57' W 122°31'4 8.1
2017-Jun-24 04:00N 37°54' W 122°26'3 5.2
2017-Jun-24 03:31N 37°52' W 122°27'5 9.4
2017-Jun-24 03:00N 37°48' W 122°24'510.9
2017-Jun-24 02:30N 37°52' W 122°27'510.9
2017-Jun-24 02:00N 37°48' W 122°23'510.0
2017-Jun-24 01:30N 37°52' W 122°27'3 5.2
2017-Jun-24 01:00N 37°50' W 122°25'3 5.0
2017-Jun-24 00:30N 37°48' W 122°23'611.0
2017-Jun-24 00:00N 37°52' W 122°27'510.6
2017-Jun-23 23:30N 37°48' W 122°23'0 0.5
2017-Jun-23 23:01N 37°48' W 122°23'0 0.5
2017-Jun-23 22:31N 37°48' W 122°24'0 0.0
2017-Jun-23 22:01N 37°48' W 122°24'0 0.0
2017-Jun-23 21:30N 37°48' W 122°24'0 0.0
2017-Jun-23 21:00N 37°48' W 122°24'0 0.0
2017-Jun-23 20:31N 37°48' W 122°24'0 0.0
2017-Jun-23 20:01N 37°48' W 122°24'0 0.0
2017-Jun-23 19:30N 37°48' W 122°24'0 0.0
2017-Jun-23 19:01N 37°48' W 122°24'0 0.0
2017-Jun-23 18:31N 37°48' W 122°24'0 0.0
2017-Jun-23 18:01N 37°48' W 122°24'0 0.0
2017-Jun-23 17:30N 37°48' W 122°24'0 0.6
2017-Jun-23 17:00N 37°48' W 122°23'2 3.2
2017-Jun-23 16:31N 37°49' W 122°24'4 7.6
2017-Jun-23 16:01N 37°52' W 122°27'5 9.9
2017-Jun-23 15:31N 37°48' W 122°24'510.7
2017-Jun-23 15:01N 37°52' W 122°27'4 8.2
2017-Jun-23 14:31N 37°49' W 122°23'4 4.0
2017-Jun-23 13:30N 37°52' W 122°27'510.5
2017-Jun-23 13:00N 37°48' W 122°24'511.0
2017-Jun-23 12:31N 37°52' W 122°27'4 7.4
2017-Jun-23 12:00N 37°56' W 122°29'2 0.2
2017-Jun-23 04:19N 37°57' W 122°31'2 7.4
2017-Jun-23 04:00N 37°56' W 122°28'3 6.8
2017-Jun-23 03:31N 37°52' W 122°27'510.7
2017-Jun-23 03:00N 37°48' W 122°24'511.0
2017-Jun-23 02:30N 37°52' W 122°27'510.9
2017-Jun-23 02:00N 37°48' W 122°23'4 7.8
2017-Jun-23 01:31N 37°51' W 122°26'1 2.0
2017-Jun-23 01:01N 37°51' W 122°25'3 6.3
2017-Jun-23 00:30N 37°48' W 122°23'611.0
2017-Jun-23 00:00N 37°52' W 122°27'510.8
2017-Jun-22 23:31N 37°48' W 122°23'0 0.4
2017-Jun-22 23:01N 37°48' W 122°23'0 0.8
2017-Jun-22 22:30N 37°48' W 122°24'0 0.0
2017-Jun-22 22:00N 37°48' W 122°24'0 0.0
2017-Jun-22 21:30N 37°48' W 122°24'0 0.0
2017-Jun-22 21:00N 37°48' W 122°24'0 0.0
2017-Jun-22 20:30N 37°48' W 122°24'0 0.0
2017-Jun-22 20:00N 37°48' W 122°24'0 0.0
2017-Jun-22 19:30N 37°48' W 122°24'0 0.0
2017-Jun-22 19:00N 37°48' W 122°24'0 0.0
2017-Jun-22 18:30N 37°48' W 122°24'0 0.0
2017-Jun-22 18:01N 37°48' W 122°24'0 0.0
2017-Jun-22 17:30N 37°48' W 122°24'0 0.6
2017-Jun-22 17:00N 37°48' W 122°23'2 3.2
2017-Jun-22 16:30N 37°49' W 122°24'4 8.2
2017-Jun-22 16:00N 37°52' W 122°27'510.5
2017-Jun-22 15:30N 37°48' W 122°24'510.7
2017-Jun-22 15:00N 37°52' W 122°27'4 7.2
2017-Jun-22 14:30N 37°50' W 122°24'4 3.5
2017-Jun-22 13:30N 37°52' W 122°27'510.6
2017-Jun-22 13:00N 37°48' W 122°24'511.0
2017-Jun-22 12:31N 37°52' W 122°27'3 5.8
2017-Jun-22 12:01N 37°55' W 122°27'3 0.4
2017-Jun-22 04:27N 37°57' W 122°30'511.7
2017-Jun-22 04:01N 37°53' W 122°26'4 7.2
2017-Jun-22 03:30N 37°49' W 122°24'2 3.5
2017-Jun-22 03:00N 37°48' W 122°23'611.1
2017-Jun-22 02:30N 37°52' W 122°27'510.8
2017-Jun-22 02:01N 37°48' W 122°23'5 9.3
2017-Jun-22 01:30N 37°52' W 122°27'2 4.1
2017-Jun-22 01:00N 37°50' W 122°25'3 5.6
2017-Jun-22 00:31N 37°48' W 122°23'611.0
2017-Jun-22 00:00N 37°52' W 122°27'611.0
2017-Jun-21 23:30N 37°48' W 122°23'0 0.1
2017-Jun-21 23:00N 37°48' W 122°23'0 0.4
2017-Jun-21 22:30N 37°48' W 122°24'0 0.0
2017-Jun-21 22:00N 37°48' W 122°24'0 0.0
2017-Jun-21 21:30N 37°48' W 122°24'0 0.0
2017-Jun-21 21:00N 37°48' W 122°24'0 0.0
2017-Jun-21 20:30N 37°48' W 122°24'0 0.0
2017-Jun-21 20:00N 37°48' W 122°24'0 0.0
2017-Jun-21 19:30N 37°48' W 122°24'0 0.0
2017-Jun-21 19:00N 37°48' W 122°24'0 0.0
2017-Jun-21 18:30N 37°48' W 122°24'0 0.0
2017-Jun-21 18:00N 37°48' W 122°24'0 0.0
2017-Jun-21 17:30N 37°48' W 122°24'0 0.5
2017-Jun-21 17:00N 37°48' W 122°23'1 3.0
2017-Jun-21 16:30N 37°49' W 122°24'4 8.2
2017-Jun-21 16:00N 37°52' W 122°27'510.3
2017-Jun-21 15:30N 37°48' W 122°24'510.7
2017-Jun-21 15:01N 37°52' W 122°27'3 3.4
2017-Jun-21 14:00N 37°50' W 122°24'3 7.0
2017-Jun-21 13:31N 37°52' W 122°27'510.7
2017-Jun-21 13:01N 37°48' W 122°24'510.9
2017-Jun-21 12:30N 37°52' W 122°27'2 4.3
2017-Jun-21 12:00N 37°55' W 122°27'3 7.0
2017-Jun-21 11:30N 37°57' W 122°30'0 0.1
2017-Jun-21 11:00N 37°57' W 122°31'0 0.1
2017-Jun-21 10:29N 37°57' W 122°30'0 0.0
2017-Jun-21 10:00N 37°57' W 122°30'0 0.1
2017-Jun-21 09:30N 37°57' W 122°31'0 0.0
2017-Jun-21 09:00N 37°57' W 122°31'0 0.0
2017-Jun-21 08:30N 37°57' W 122°31'0 0.0
2017-Jun-21 08:00N 37°57' W 122°31'0 0.0
2017-Jun-21 07:30N 37°57' W 122°31'0 0.1
2017-Jun-21 07:00N 37°57' W 122°30'0 0.1
2017-Jun-21 06:30N 37°57' W 122°31'0 0.0
2017-Jun-21 06:00N 37°57' W 122°31'0 0.0
2017-Jun-21 05:31N 37°57' W 122°31'0 0.0
2017-Jun-21 04:59N 37°57' W 122°31'0 0.0
2017-Jun-21 04:25N 37°57' W 122°31'3 8.1
2017-Jun-21 04:01N 37°55' W 122°27'3 5.1
2017-Jun-21 03:30N 37°52' W 122°27'510.9
2017-Jun-21 03:00N 37°48' W 122°24'510.9
2017-Jun-21 02:30N 37°52' W 122°27'510.8
2017-Jun-21 02:00N 37°48' W 122°23'4 8.6
2017-Jun-21 01:30N 37°51' W 122°27'2 4.3
2017-Jun-21 01:00N 37°50' W 122°24'3 5.2
2017-Jun-21 00:30N 37°48' W 122°23'611.1
2017-Jun-21 00:01N 37°52' W 122°27'510.6
2017-Jun-20 23:30N 37°48' W 122°23'0 1.0
2017-Jun-20 23:00N 37°48' W 122°23'0 0.2
2017-Jun-20 22:30N 37°48' W 122°24'0 0.0
2017-Jun-20 22:00N 37°48' W 122°24'0 0.0
2017-Jun-20 21:30N 37°48' W 122°24'0 0.0
2017-Jun-20 21:00N 37°48' W 122°24'0 0.0
2017-Jun-20 20:30N 37°48' W 122°24'0 0.0
2017-Jun-20 20:00N 37°48' W 122°24'0 0.0
2017-Jun-20 19:30N 37°48' W 122°24'0 0.0
2017-Jun-20 19:00N 37°48' W 122°24'0 0.0
2017-Jun-20 18:30N 37°48' W 122°24'0 0.0
2017-Jun-20 18:00N 37°48' W 122°24'0 0.0
2017-Jun-20 17:30N 37°48' W 122°24'0 0.4
2017-Jun-20 17:00N 37°48' W 122°23'2 3.4
2017-Jun-20 16:30N 37°49' W 122°24'4 7.8
2017-Jun-20 16:00N 37°52' W 122°27'510.5
2017-Jun-20 15:30N 37°48' W 122°24'510.8
2017-Jun-20 15:01N 37°52' W 122°27'3 3.4
2017-Jun-20 14:01N 37°50' W 122°24'3 6.8
2017-Jun-20 13:30N 37°52' W 122°27'510.6
2017-Jun-20 13:00N 37°48' W 122°24'510.9
2017-Jun-20 12:30N 37°52' W 122°27'3 5.5
2017-Jun-20 12:01N 37°55' W 122°27'3 5.5
2017-Jun-20 11:29N 37°57' W 122°31'0 0.0
2017-Jun-20 11:00N 37°57' W 122°31'0 0.0
2017-Jun-20 10:30N 37°57' W 122°31'0 0.1
2017-Jun-20 10:00N 37°57' W 122°30'0 0.0
2017-Jun-20 09:30N 37°57' W 122°30'0 0.1
2017-Jun-20 09:00N 37°57' W 122°31'0 0.0
2017-Jun-20 08:30N 37°57' W 122°31'0 0.0
2017-Jun-20 08:00N 37°57' W 122°31'0 0.0
2017-Jun-20 07:30N 37°57' W 122°31'0 0.0
2017-Jun-20 07:00N 37°57' W 122°31'0 0.0
2017-Jun-20 06:30N 37°57' W 122°31'0 0.0
2017-Jun-20 06:00N 37°57' W 122°31'0 0.0
2017-Jun-20 05:30N 37°57' W 122°31'0 0.0
2017-Jun-20 05:00N 37°57' W 122°31'0 0.0
2017-Jun-20 04:30N 37°57' W 122°31'2 3.5
2017-Jun-20 04:00N 37°56' W 122°29'4 7.7
2017-Jun-20 03:31N 37°52' W 122°27'510.5
2017-Jun-20 03:01N 37°48' W 122°24'510.8
2017-Jun-20 02:30N 37°52' W 122°27'510.8
2017-Jun-20 02:00N 37°48' W 122°23'4 8.8
2017-Jun-20 01:31N 37°51' W 122°27'2 3.6
2017-Jun-20 01:00N 37°50' W 122°25'3 5.8
2017-Jun-20 00:30N 37°48' W 122°23'611.1
2017-Jun-20 00:00N 37°52' W 122°27'510.9
2017-Jun-19 23:30N 37°48' W 122°23'0 0.4
2017-Jun-19 23:00N 37°48' W 122°23'0 0.7
2017-Jun-19 22:30N 37°48' W 122°24'0 0.0
2017-Jun-19 22:00N 37°48' W 122°24'0 0.0
2017-Jun-19 21:30N 37°48' W 122°24'0 0.0
2017-Jun-19 21:00N 37°48' W 122°24'0 0.0
2017-Jun-19 20:30N 37°48' W 122°24'0 0.0
2017-Jun-19 20:00N 37°48' W 122°24'0 0.0
2017-Jun-19 19:30N 37°48' W 122°24'0 0.0
2017-Jun-19 19:00N 37°48' W 122°24'0 0.0
2017-Jun-19 18:30N 37°48' W 122°24'0 0.0
2017-Jun-19 18:00N 37°48' W 122°24'0 0.0
2017-Jun-19 17:30N 37°48' W 122°24'0 0.5
2017-Jun-19 17:00N 37°48' W 122°23'2 3.3
2017-Jun-19 16:31N 37°49' W 122°24'4 8.0
2017-Jun-19 16:01N 37°52' W 122°27'510.5
2017-Jun-19 15:30N 37°48' W 122°24'510.9
2017-Jun-19 15:00N 37°52' W 122°27'4 8.3
2017-Jun-19 14:30N 37°50' W 122°23'4 3.9
2017-Jun-19 13:30N 37°52' W 122°27'510.3
2017-Jun-19 13:00N 37°48' W 122°24'511.0
2017-Jun-19 12:30N 37°52' W 122°27'3 6.1
2017-Jun-19 12:00N 37°55' W 122°28'3 5.1
2017-Jun-19 11:29N 37°57' W 122°31'0 0.0
2017-Jun-19 10:59N 37°57' W 122°31'0 0.0
2017-Jun-19 10:31N 37°57' W 122°31'0 0.0
2017-Jun-19 10:00N 37°57' W 122°31'0 0.1
2017-Jun-19 09:29N 37°57' W 122°30'0 0.1
2017-Jun-19 09:00N 37°57' W 122°31'0 0.0
2017-Jun-19 08:30N 37°57' W 122°31'0 0.0
2017-Jun-19 08:00N 37°57' W 122°31'0 0.0
2017-Jun-19 07:30N 37°57' W 122°31'0 0.0
2017-Jun-19 07:00N 37°57' W 122°31'0 0.0
2017-Jun-19 06:30N 37°57' W 122°31'0 0.0
2017-Jun-19 05:59N 37°57' W 122°31'0 0.0
2017-Jun-19 05:29N 37°57' W 122°31'0 0.0
2017-Jun-19 05:00N 37°57' W 122°31'0 0.0
2017-Jun-19 04:30N 37°57' W 122°31'0 0.0
2017-Jun-19 03:58N 37°57' W 122°31'0 0.0
2017-Jun-19 03:28N 37°57' W 122°31'0 0.0
2017-Jun-19 03:00N 37°57' W 122°31'0 0.0
2017-Jun-19 02:29N 37°57' W 122°31'2 3.9
2017-Jun-19 02:00N 37°56' W 122°28'917.8
2017-Jun-19 01:31N 37°48' W 122°23'0 0.4
2017-Jun-19 01:01N 37°48' W 122°24'510.5
2017-Jun-19 00:30N 37°51' W 122°29'2 3.3
2017-Jun-19 00:00N 37°51' W 122°27'4 8.0
2017-Jun-18 23:30N 37°48' W 122°24'4 7.7
2017-Jun-18 23:00N 37°50' W 122°27'2 3.1
2017-Jun-18 22:30N 37°51' W 122°29'5 9.2
2017-Jun-18 22:00N 37°49' W 122°24'0 0.9
2017-Jun-18 21:30N 37°49' W 122°24'4 8.5
2017-Jun-18 21:00N 37°51' W 122°29'510.9
2017-Jun-18 20:30N 37°48' W 122°23'3 5.1
2017-Jun-18 20:01N 37°49' W 122°26'3 5.8
2017-Jun-18 19:30N 37°51' W 122°29'510.7
2017-Jun-18 19:00N 37°48' W 122°24'4 8.2
2017-Jun-18 18:30N 37°51' W 122°27'1 1.1
2017-Jun-18 18:01N 37°51' W 122°27'5 9.0
2017-Jun-18 17:31N 37°48' W 122°24'611.4
2017-Jun-18 17:00N 37°53' W 122°26'510.2
2017-Jun-18 16:30N 37°57' W 122°31'0 0.0
2017-Jun-18 16:00N 37°57' W 122°31'0 0.0
2017-Jun-18 03:49N 37°57' W 122°31'2 6.3
2017-Jun-18 03:31N 37°56' W 122°28'917.7
2017-Jun-18 03:01N 37°48' W 122°24'1 2.8
2017-Jun-18 02:30N 37°49' W 122°24'4 8.6
2017-Jun-18 02:01N 37°51' W 122°29'0 0.2
2017-Jun-18 01:31N 37°51' W 122°29'510.6
2017-Jun-18 01:00N 37°48' W 122°24'0 0.2
2017-Jun-18 00:30N 37°48' W 122°23'917.8
2017-Jun-18 00:01N 37°56' W 122°28'2 3.4
2017-Jun-17 23:30N 37°57' W 122°30'815.8
2017-Jun-17 23:01N 37°51' W 122°24'3 5.6
2017-Jun-17 22:30N 37°48' W 122°24'0 0.0
2017-Jun-17 22:00N 37°48' W 122°24'0 0.4
2017-Jun-17 21:31N 37°48' W 122°23'918.2
2017-Jun-17 21:00N 37°56' W 122°29'2 2.9
2017-Jun-17 20:30N 37°57' W 122°30'613.3
2017-Jun-17 20:00N 37°52' W 122°25'4 8.9
2017-Jun-17 19:30N 37°48' W 122°24'917.3
2017-Jun-17 19:00N 37°56' W 122°28'2 4.3
2017-Jun-17 18:30N 37°57' W 122°31'0 0.0
2017-Jun-17 04:40N 37°57' W 122°31'0 0.5
2017-Jun-17 04:30N 37°57' W 122°31'2 3.5
2017-Jun-17 04:00N 37°56' W 122°29'4 7.7
2017-Jun-17 03:30N 37°52' W 122°27'510.5
2017-Jun-17 03:00N 37°48' W 122°23'510.9
2017-Jun-17 02:30N 37°52' W 122°27'511.0
2017-Jun-17 02:01N 37°48' W 122°24'510.4
2017-Jun-17 01:30N 37°52' W 122°27'2 3.4
2017-Jun-17 01:01N 37°51' W 122°26'4 7.1
2017-Jun-17 00:30N 37°48' W 122°23'511.0
2017-Jun-17 00:01N 37°52' W 122°27'510.9
2017-Jun-16 23:30N 37°48' W 122°23'0 0.4
2017-Jun-16 23:00N 37°48' W 122°23'0 0.6
2017-Jun-16 22:30N 37°48' W 122°24'0 0.0
2017-Jun-16 22:00N 37°48' W 122°24'0 0.0
2017-Jun-16 21:30N 37°48' W 122°24'0 0.0
2017-Jun-16 21:00N 37°48' W 122°24'0 0.0
2017-Jun-16 20:30N 37°48' W 122°24'0 0.0
2017-Jun-16 20:00N 37°48' W 122°24'0 0.0
2017-Jun-16 19:30N 37°48' W 122°24'0 0.0
2017-Jun-16 19:00N 37°48' W 122°24'0 0.0
2017-Jun-16 18:30N 37°48' W 122°24'0 0.0
2017-Jun-16 18:00N 37°48' W 122°24'0 0.0
2017-Jun-16 17:30N 37°48' W 122°24'0 0.4
2017-Jun-16 17:00N 37°48' W 122°23'1 2.3
2017-Jun-16 16:30N 37°49' W 122°24'5 9.0
2017-Jun-16 16:00N 37°52' W 122°27'510.6
2017-Jun-16 15:30N 37°48' W 122°24'5 9.8
2017-Jun-16 15:00N 37°52' W 122°27'3 3.0
2017-Jun-16 14:00N 37°50' W 122°24'3 6.9
2017-Jun-16 13:30N 37°52' W 122°27'510.8
2017-Jun-16 13:00N 37°48' W 122°24'510.9
2017-Jun-16 12:30N 37°52' W 122°27'  

Dump ship's entire track history